Time;durP1;ratioP1;P1;durP2;ratioP2;P2;SDS_P1;SDS_P2;PMS_P1;PMS_P2;Temp;Humidity;BMP_temperature;BMP_pressure;BME280_temperature;BME280_humidity;BME280_pressure;Samples;Min_cycle;Max_cycle;Signal;HPM_P1;HPM_P2
2023/05/06 00:01:55;;;;;;;9.85;6.95;;;;;;;18.00;48.27;93355.16;5030078;28;20053;-92
2023/05/06 00:04:20;;;;;;;10.60;5.80;;;;;;;18.00;48.60;93349.69;4998804;28;20408;-91
2023/05/06 00:06:47;;;;;;;7.57;5.45;;;;;;;17.99;48.88;93342.00;4974860;28;20046;-90
2023/05/06 00:09:13;;;;;;;6.93;6.15;;;;;;;18.00;48.52;93338.75;4991307;28;20049;-91
2023/05/06 00:11:38;;;;;;;8.90;6.32;;;;;;;18.00;48.82;93332.53;4979027;28;20473;-91
2023/05/06 00:14:03;;;;;;;9.23;5.63;;;;;;;18.00;48.90;93321.59;4975764;28;20037;-91
2023/05/06 00:16:29;;;;;;;8.68;6.45;;;;;;;17.98;48.52;93326.84;4983188;28;20045;-91
2023/05/06 00:18:55;;;;;;;7.75;6.18;;;;;;;17.98;48.67;93326.84;5023626;28;20045;-91
2023/05/06 00:21:20;;;;;;;7.88;5.60;;;;;;;17.99;48.54;93326.34;4990634;28;20045;-90
2023/05/06 00:23:46;;;;;;;9.68;6.25;;;;;;;18.00;48.82;93318.88;4991567;28;20042;-91
2023/05/06 00:26:11;;;;;;;8.57;6.65;;;;;;;17.98;48.51;93315.91;4990790;28;20049;-91
2023/05/06 00:28:36;;;;;;;9.05;6.07;;;;;;;17.98;48.79;93318.63;4991490;28;20052;-91
2023/05/06 00:31:05;;;;;;;8.88;6.25;;;;;;;17.96;48.53;93319.16;4987956;28;20397;-91
2023/05/06 00:33:30;;;;;;;9.27;5.50;;;;;;;17.99;49.08;93325.59;4974590;28;20061;-91
2023/05/06 00:35:56;;;;;;;6.57;5.13;;;;;;;17.96;49.27;93330.13;5023326;28;20413;-90
2023/05/06 00:38:21;;;;;;;8.18;5.38;;;;;;;17.96;48.87;93332.84;4990931;28;20504;-90
2023/05/06 00:40:47;;;;;;;7.90;5.38;;;;;;;17.98;48.75;93329.56;4991093;28;20427;-92
2023/05/06 00:43:12;;;;;;;6.90;5.85;;;;;;;17.94;48.60;93329.88;4982703;28;20038;-90
2023/05/06 00:45:38;;;;;;;4.93;4.43;;;;;;;17.96;49.20;93321.91;4988419;28;20052;-91
2023/05/06 00:48:04;;;;;;;8.10;5.55;;;;;;;17.96;48.98;93319.16;4990496;28;20045;-92
2023/05/06 00:50:32;;;;;;;9.52;5.43;;;;;;;17.98;48.97;93310.44;5006985;28;20057;-90
2023/05/06 00:52:57;;;;;;;6.75;5.30;;;;;;;17.97;48.91;93314.44;5002941;28;20836;-91
2023/05/06 00:55:23;;;;;;;8.35;5.95;;;;;;;17.95;48.92;93306.75;4989072;28;20046;-91
2023/05/06 00:57:49;;;;;;;6.47;5.00;;;;;;;17.96;49.13;93316.44;4991041;28;20594;-91
2023/05/06 01:00:15;;;;;;;7.90;5.78;;;;;;;17.97;49.11;93320.63;4990312;28;20038;-92
2023/05/06 01:02:40;;;;;;;7.93;5.57;;;;;;;17.93;48.84;93317.44;4974543;28;20107;-91
2023/05/06 01:05:07;;;;;;;9.32;5.68;;;;;;;17.94;48.76;93316.19;4973909;28;20646;-91
2023/05/06 01:07:44;;;;;;;6.57;4.95;;;;;;;17.93;48.99;93322.94;4990103;28;20041;-90
2023/05/06 01:10:19;;;;;;;6.95;5.60;;;;;;;17.92;48.52;93323.44;5002548;28;20046;-89
2023/05/06 01:12:53;;;;;;;7.38;5.38;;;;;;;17.94;49.19;93329.13;5003239;28;20137;-91
2023/05/06 01:15:24;;;;;;;6.95;5.10;;;;;;;17.94;49.04;93329.13;5003586;28;20038;-90
2023/05/06 01:17:50;;;;;;;5.85;4.95;;;;;;;17.96;49.29;93335.59;4984041;28;20078;-90
2023/05/06 01:20:16;;;;;;;6.43;5.45;;;;;;;17.92;48.81;93324.19;4973519;28;20463;-90
2023/05/06 01:22:42;;;;;;;6.00;4.90;;;;;;;17.94;49.04;93327.16;4984955;28;20034;-91
2023/05/06 01:25:16;;;;;;;7.03;5.20;;;;;;;17.90;48.69;93323.94;4993986;28;20038;-91
2023/05/06 01:27:41;;;;;;;7.47;4.70;;;;;;;17.92;49.24;93328.91;4993967;28;20048;-91
2023/05/06 01:30:07;;;;;;;6.25;4.70;;;;;;;17.92;49.09;93326.16;4993767;28;20034;-90
2023/05/06 01:32:43;;;;;;;4.90;4.32;;;;;;;17.93;49.28;93322.19;4993797;28;20068;-90
2023/05/06 01:35:18;;;;;;;7.82;4.88;;;;;;;17.91;48.95;93321.94;4994413;28;20608;-90
2023/05/06 01:37:51;;;;;;;6.13;4.80;;;;;;;17.93;48.99;93328.41;5026545;28;20045;-90
2023/05/06 01:40:16;;;;;;;6.13;4.60;;;;;;;17.94;48.81;93315.47;5026670;28;20109;-90
2023/05/06 01:42:46;;;;;;;6.93;4.63;;;;;;;17.90;49.23;93328.66;4994105;28;20045;-91
2023/05/06 01:45:11;;;;;;;6.25;4.30;;;;;;;17.93;49.27;93333.13;5009599;28;20042;-91
2023/05/06 01:47:37;;;;;;;6.90;4.63;;;;;;;17.93;49.79;93330.38;4977687;28;20033;-92
2023/05/06 01:50:02;;;;;;;5.47;4.40;;;;;;;17.92;49.04;93321.44;4993810;28;20045;-92
2023/05/06 01:52:28;;;;;;;6.10;4.80;;;;;;;17.90;48.88;93328.66;4980376;28;20049;-92
2023/05/06 01:54:53;;;;;;;5.70;4.60;;;;;;;17.90;48.83;93323.94;4977872;28;20030;-91
2023/05/06 01:57:19;;;;;;;8.75;4.72;;;;;;;17.90;48.92;93323.94;4976106;28;20065;-91
2023/05/06 01:59:44;;;;;;;4.85;4.40;;;;;;;17.89;48.86;93325.19;4994202;28;20439;-91
2023/05/06 02:02:09;;;;;;;6.00;4.60;;;;;;;17.86;49.01;93320.72;4992489;28;20045;-91
2023/05/06 02:04:35;;;;;;;7.10;4.93;;;;;;;17.88;48.85;93325.69;4993532;28;20080;-90
2023/05/06 02:07:00;;;;;;;5.15;4.18;;;;;;;17.92;49.22;93318.69;4993451;28;20060;-90
2023/05/06 02:09:26;;;;;;;8.18;4.82;;;;;;;17.91;48.90;93324.69;4989288;28;20041;-91
2023/05/06 02:11:51;;;;;;;5.53;4.05;;;;;;;17.91;49.24;93319.22;4983981;28;20448;-90
2023/05/06 02:14:17;;;;;;;6.30;4.50;;;;;;;17.91;48.72;93317.22;4977204;28;20404;-89
2023/05/06 02:16:42;;;;;;;6.63;4.80;;;;;;;17.92;49.35;93315.97;4993174;28;20544;-90
2023/05/06 02:19:07;;;;;;;5.68;4.00;;;;;;;17.91;49.24;93316.47;4992968;28;20443;-91
2023/05/06 02:21:33;;;;;;;5.20;4.45;;;;;;;17.88;49.18;93322.97;4989456;28;20405;-90
2023/05/06 02:23:58;;;;;;;5.25;4.20;;;;;;;17.91;49.23;93321.94;4974190;28;20636;-90
2023/05/06 02:26:24;;;;;;;9.27;4.53;;;;;;;17.87;49.15;93321.47;4978772;28;20037;-90
2023/05/06 02:28:49;;;;;;;5.45;4.20;;;;;;;17.87;49.01;93316.75;4993110;28;20034;-91
2023/05/06 02:31:15;;;;;;;5.38;4.22;;;;;;;17.90;49.28;93309.53;4976036;28;20559;-91
2023/05/06 02:33:40;;;;;;;6.22;4.45;;;;;;;17.86;49.51;93314.53;4988728;28;20493;-91
2023/05/06 02:36:06;;;;;;;7.30;4.70;;;;;;;17.86;49.44;93320.00;4992355;28;20444;-91
2023/05/06 02:38:31;;;;;;;4.70;4.15;;;;;;;17.86;49.32;93315.25;4976520;28;20061;-92
2023/05/06 02:40:57;;;;;;;7.75;4.07;;;;;;;17.88;49.51;93322.97;4992644;28;20046;-91
2023/05/06 02:43:23;;;;;;;5.80;3.85;;;;;;;17.87;49.35;93321.47;4975935;28;20508;-90
2023/05/06 02:45:48;;;;;;;5.10;4.05;;;;;;;17.88;49.32;93322.97;4976212;28;20133;-89
2023/05/06 02:48:14;;;;;;;5.15;4.10;;;;;;;17.87;49.29;93313.28;4975736;28;20041;-91
2023/05/06 02:50:40;;;;;;;6.32;4.50;;;;;;;17.88;48.87;93322.97;4992659;28;20084;-91
2023/05/06 02:53:05;;;;;;;4.65;3.88;;;;;;;17.86;49.47;93320.00;4990388;28;20045;-91
2023/05/06 02:55:30;;;;;;;5.00;3.85;;;;;;;17.88;49.17;93320.22;5008831;28;20041;-91
2023/05/06 02:57:56;;;;;;;5.25;4.10;;;;;;;17.88;49.43;93318.22;4989939;28;20049;-91
2023/05/06 03:00:21;;;;;;;5.45;3.92;;;;;;;17.84;49.02;93320.50;4990455;28;20038;-90
2023/05/06 03:02:47;;;;;;;6.28;4.53;;;;;;;17.83;49.62;93324.47;4990475;28;20054;-90
2023/05/06 03:05:12;;;;;;;6.50;4.43;;;;;;;17.84;49.07;93317.75;4990295;28;20439;-90
2023/05/06 03:07:38;;;;;;;5.38;4.20;;;;;;;17.81;49.10;93319.53;5006440;28;20583;-90
2023/05/06 03:10:03;;;;;;;6.80;4.20;;;;;;;17.83;49.38;93315.53;4990179;28;20037;-90
2023/05/06 03:12:29;;;;;;;5.30;4.10;;;;;;;17.86;48.98;93317.25;4989805;28;20546;-91
2023/05/06 03:14:54;;;;;;;6.82;4.53;;;;;;;17.83;49.33;93318.28;4991039;28;20400;-91
2023/05/06 03:17:20;;;;;;;4.00;3.53;;;;;;;17.85;49.18;93313.78;4989471;28;20099;-90
2023/05/06 03:19:47;;;;;;;6.15;4.30;;;;;;;17.82;49.18;93320.25;5006872;28;20064;-91
2023/05/06 03:22:13;;;;;;;7.10;3.80;;;;;;;17.85;49.07;93307.56;4989480;28;20042;-90
2023/05/06 03:24:38;;;;;;;4.93;4.18;;;;;;;17.82;49.49;93314.78;5004939;28;20122;-89
2023/05/06 03:27:04;;;;;;;6.20;4.22;;;;;;;17.84;49.00;93311.56;5007170;28;20486;-90
2023/05/06 03:29:29;;;;;;;5.22;3.70;;;;;;;17.83;49.56;93316.28;4991983;28;20092;-92
2023/05/06 03:31:55;;;;;;;6.43;4.53;;;;;;;17.82;49.29;93312.06;4991692;28;20038;-91
2023/05/06 03:34:20;;;;;;;5.75;4.13;;;;;;;17.81;49.42;93319.53;5006726;28;20176;-90
2023/05/06 03:36:46;;;;;;;5.03;3.63;;;;;;;17.83;49.41;93324.47;4975410;28;20042;-90
2023/05/06 03:39:11;;;;;;;4.25;3.50;;;;;;;17.83;49.35;93323.75;4991330;28;20041;-90
2023/05/06 03:41:37;;;;;;;4.30;3.30;;;;;;;17.86;49.52;93322.72;4991734;28;20037;-91
2023/05/06 03:44:02;;;;;;;4.38;3.70;;;;;;;17.80;49.42;93322.75;5007672;28;20069;-90
2023/05/06 03:46:28;;;;;;;4.38;3.90;;;;;;;17.81;49.29;93316.78;4991031;28;20041;-90
2023/05/06 03:48:53;;;;;;;6.32;4.13;;;;;;;17.83;48.91;93331.94;4974653;28;20042;-90
2023/05/06 03:51:20;;;;;;;6.30;4.60;;;;;;;17.81;49.15;93322.25;5006995;28;20073;-90
2023/05/06 03:53:45;;;;;;;6.90;3.75;;;;;;;17.85;49.60;93321.25;4975375;28;20038;-89
2023/05/06 03:56:10;;;;;;;4.68;3.58;;;;;;;17.84;49.62;93325.97;4991536;28;20041;-90
2023/05/06 03:58:36;;;;;;;4.55;3.50;;;;;;;17.86;49.71;93323.47;4987876;28;20049;-90
2023/05/06 04:01:01;;;;;;;5.05;3.75;;;;;;;17.84;49.22;93314.28;4972196;28;20049;-91
2023/05/06 04:03:27;;;;;;;5.32;4.07;;;;;;;17.81;49.35;93322.25;4987814;28;20046;-91
2023/05/06 04:05:52;;;;;;;5.18;4.00;;;;;;;17.81;49.61;93316.03;4991580;28;20057;-89
2023/05/06 04:08:18;;;;;;;5.10;3.42;;;;;;;17.81;49.41;93329.72;4986968;28;20404;-90
2023/05/06 04:10:44;;;;;;;6.32;3.78;;;;;;;17.83;49.53;93329.22;4987569;28;20038;-90
2023/05/06 04:13:09;;;;;;;5.22;3.63;;;;;;;17.83;49.99;93318.28;4985849;28;20057;-90
2023/05/06 04:15:36;;;;;;;5.85;3.40;;;;;;;17.81;49.29;93326.97;4991051;28;20088;-90
2023/05/06 04:18:02;;;;;;;5.32;3.30;;;;;;;17.81;49.43;93326.97;4991219;28;20045;-90
2023/05/06 04:20:27;;;;;;;4.25;3.42;;;;;;;17.81;49.69;93322.25;4990271;28;20042;-90
2023/05/06 04:22:52;;;;;;;4.00;3.33;;;;;;;17.80;49.38;93336.44;4974889;28;20440;-89
2023/05/06 04:25:21;;;;;;;5.10;4.03;;;;;;;17.82;49.27;93333.94;5006627;28;20447;-89
2023/05/06 04:27:46;;;;;;;4.40;3.70;;;;;;;17.83;49.79;93329.22;5007598;28;20033;-90
2023/05/06 04:30:12;;;;;;;4.40;3.55;;;;;;;17.83;49.86;93331.94;4974512;28;20100;-89
2023/05/06 04:32:37;;;;;;;4.75;3.90;;;;;;;17.80;49.22;93331.72;4974358;28;20045;-89
2023/05/06 04:35:03;;;;;;;3.83;3.30;;;;;;;17.79;49.24;93335.69;4974137;28;20590;-90
2023/05/06 04:37:29;;;;;;;5.70;3.80;;;;;;;17.82;49.40;93331.19;4974437;28;20104;-90
2023/05/06 04:39:55;;;;;;;4.65;3.47;;;;;;;17.81;49.57;93330.47;4991027;28;20072;-90
2023/05/06 04:42:21;;;;;;;4.32;3.15;;;;;;;17.84;49.56;93336.16;4990143;28;20042;-90
2023/05/06 04:44:47;;;;;;;5.25;3.30;;;;;;;17.83;49.38;93342.88;4990756;28;20034;-90
2023/05/06 04:47:13;;;;;;;6.20;3.70;;;;;;;17.82;49.35;93350.34;4990142;28;20469;-91
2023/05/06 04:49:38;;;;;;;4.45;3.33;;;;;;;17.83;49.64;93349.09;4990143;28;20045;-91
2023/05/06 04:52:04;;;;;;;3.45;2.97;;;;;;;17.82;49.21;93347.59;4974092;28;20052;-90
2023/05/06 04:54:29;;;;;;;3.70;3.30;;;;;;;17.82;49.58;93350.34;5006374;28;20419;-89
2023/05/06 04:56:54;;;;;;;4.90;3.30;;;;;;;17.85;49.55;93351.31;4992024;28;20779;-89
2023/05/06 04:59:20;;;;;;;4.25;3.50;;;;;;;17.82;49.33;93361.28;4977784;28;20489;-90
2023/05/06 05:01:45;;;;;;;3.67;2.75;;;;;;;17.83;49.90;93364.75;4994167;28;20053;-90
2023/05/06 05:04:11;;;;;;;4.97;3.33;;;;;;;17.81;49.84;93359.78;4994464;28;20042;-92
2023/05/06 05:06:36;;;;;;;4.70;3.10;;;;;;;17.82;49.69;93364.00;4995100;28;20038;-90
2023/05/06 05:09:03;;;;;;;4.40;3.13;;;;;;;17.81;49.48;93360.53;4977565;28;20038;-92
2023/05/06 05:11:28;;;;;;;4.55;2.78;;;;;;;17.81;49.70;93360.53;4994299;28;20049;-90
2023/05/06 05:13:54;;;;;;;4.25;3.42;;;;;;;17.83;49.61;93359.28;4991712;28;20035;-92
2023/05/06 05:16:20;;;;;;;6.75;3.20;;;;;;;17.81;49.43;93359.78;5006821;28;20057;-91
2023/05/06 05:18:45;;;;;;;4.95;3.58;;;;;;;17.79;49.48;93351.34;4990681;28;20030;-91
2023/05/06 05:21:11;;;;;;;9.02;3.80;;;;;;;17.80;49.09;93359.06;4993420;28;20038;-90
2023/05/06 05:23:36;;;;;;;6.05;3.10;;;;;;;17.81;48.97;93359.78;4993856;28;20064;-89
2023/05/06 05:26:02;;;;;;;4.68;3.45;;;;;;;17.80;48.97;93359.06;4994425;28;20049;-89
2023/05/06 05:28:27;;;;;;;6.28;3.35;;;;;;;17.83;49.08;93367.50;5009881;28;20081;-90
2023/05/06 05:30:53;;;;;;;4.50;3.47;;;;;;;17.82;49.01;93364.00;4994075;28;20064;-90
2023/05/06 05:33:18;;;;;;;6.22;3.35;;;;;;;17.78;49.12;93358.81;4992878;28;20046;-90
2023/05/06 05:35:44;;;;;;;3.10;2.80;;;;;;;17.79;48.84;93362.28;4994644;28;20045;-90
2023/05/06 05:38:10;;;;;;;4.72;3.47;;;;;;;17.78;48.98;93363.53;4977533;28;20049;-90
2023/05/06 05:40:35;;;;;;;5.05;3.42;;;;;;;17.79;48.98;93359.56;4993735;28;20488;-91
2023/05/06 05:43:01;;;;;;;3.45;3.08;;;;;;;17.80;48.96;93363.78;4994620;28;20050;-91
2023/05/06 05:45:26;;;;;;;4.30;3.28;;;;;;;17.80;49.41;93364.53;4993009;28;20396;-90
2023/05/06 05:47:52;;;;;;;4.60;3.17;;;;;;;17.79;49.02;93362.28;5010288;28;20042;-91
2023/05/06 05:50:18;;;;;;;5.75;3.20;;;;;;;17.82;49.81;93353.06;4990755;28;20178;-92
2023/05/06 05:52:43;;;;;;;5.80;3.08;;;;;;;17.79;49.11;93360.31;4987365;28;20450;-91
2023/05/06 05:55:12;;;;;;;4.82;3.38;;;;;;;17.80;49.28;93358.31;4977588;28;20042;-90
2023/05/06 05:57:37;;;;;;;6.03;3.22;;;;;;;17.79;49.26;93362.28;4994171;28;20359;-90
2023/05/06 06:00:04;;;;;;;7.00;3.33;;;;;;;17.79;49.35;93359.56;5009566;28;20507;-91
2023/05/06 06:02:30;;;;;;;6.43;4.00;;;;;;;17.77;49.25;93371.00;4993255;28;20080;-90
2023/05/06 06:04:55;;;;;;;6.82;3.22;;;;;;;17.80;49.24;93378.19;4993889;28;20492;-91
2023/05/06 06:07:21;;;;;;;4.43;2.90;;;;;;;17.81;49.69;93374.22;4992923;28;20080;-89
2023/05/06 06:09:47;;;;;;;6.03;3.13;;;;;;;17.85;49.28;93384.13;4992371;28;20033;-88
2023/05/06 06:12:13;;;;;;;7.75;3.72;;;;;;;17.88;49.49;93378.41;4976901;28;20409;-88
2023/05/06 06:14:39;;;;;;;5.90;3.42;;;;;;;17.82;49.70;93369.47;4992851;28;20038;-88
2023/05/06 06:17:05;;;;;;;4.80;3.30;;;;;;;17.82;49.01;93388.63;4977281;28;20046;-90
2023/05/06 06:19:31;;;;;;;4.72;3.35;;;;;;;17.84;50.08;93380.66;4994112;28;20092;-89
2023/05/06 06:21:56;;;;;;;6.60;3.53;;;;;;;17.83;49.28;93390.09;4994488;28;20029;-90
2023/05/06 06:24:22;;;;;;;7.45;3.15;;;;;;;17.87;49.80;93387.84;5006085;28;20042;-88
2023/05/06 06:26:48;;;;;;;10.82;3.50;;;;;;;17.83;49.63;93390.09;4990725;28;20117;-89
2023/05/06 06:29:14;;;;;;;11.60;4.13;;;;;;;17.83;49.25;93397.56;5021754;28;20126;-89
2023/05/06 06:31:40;;;;;;;8.65;3.35;;;;;;;17.86;50.12;93391.09;5008907;28;20041;-90
2023/05/06 06:34:07;;;;;;;12.07;4.95;;;;;;;17.82;49.03;93388.63;4992614;28;20641;-89
2023/05/06 06:36:33;;;;;;;32.17;10.65;;;;;;;17.80;49.24;93397.34;4977242;28;20500;-89
2023/05/06 06:38:58;;;;;;;22.75;6.85;;;;;;;17.82;49.44;93402.28;4993474;28;20073;-89
2023/05/06 06:41:24;;;;;;;34.38;9.65;;;;;;;17.81;49.87;93401.56;4992326;28;20108;-90
2023/05/06 06:43:49;;;;;;;39.42;10.35;;;;;;;17.82;49.73;93402.28;4976543;28;20034;-89
2023/05/06 06:46:14;;;;;;;41.90;10.93;;;;;;;17.83;49.43;93408.50;4991359;28;20038;-89
2023/05/06 06:48:40;;;;;;;33.15;9.15;;;;;;;17.83;49.47;93403.03;4976379;28;20103;-90
2023/05/06 06:51:05;;;;;;;43.97;11.48;;;;;;;17.83;49.34;93403.78;5005464;28;20046;-90
2023/05/06 06:53:31;;;;;;;39.47;11.82;;;;;;;17.84;49.55;93396.31;4997914;28;20128;-88
2023/05/06 06:55:57;;;;;;;34.17;11.18;;;;;;;17.84;50.05;93399.81;4976776;28;20042;-87
2023/05/06 06:58:22;;;;;;;27.33;9.70;;;;;;;17.86;50.06;93396.56;5022784;28;20077;-92
2023/05/06 07:00:48;;;;;;;34.50;10.07;;;;;;;17.91;49.78;93398.53;4994580;28;20041;-91
2023/05/06 07:03:18;;;;;;;39.38;14.35;;;;;;;17.87;49.98;93400.78;4992653;28;20042;-90
2023/05/06 07:05:44;;;;;;;51.97;16.92;;;;;;;17.86;49.57;93407.50;4978778;28;20096;-89
2023/05/06 07:08:10;;;;;;;63.00;16.60;;;;;;;17.87;49.77;93398.78;4972825;28;20044;-90
2023/05/06 07:10:37;;;;;;;40.40;13.27;;;;;;;17.86;50.10;93402.03;4985633;28;20128;-91
2023/05/06 07:13:03;;;;;;;59.92;15.70;;;;;;;17.88;49.14;93407.72;5006794;28;20050;-90
2023/05/06 07:15:28;;;;;;;56.50;16.80;;;;;;;17.83;50.08;93403.03;5025226;28;20081;-91
2023/05/06 07:17:54;;;;;;;39.50;16.65;;;;;;;17.88;51.19;93405.75;4997716;28;20037;-91
2023/05/06 07:20:21;;;;;;;40.95;15.48;;;;;;;17.90;50.96;93405.25;4986312;28;20064;-90
2023/05/06 07:22:47;;;;;;;58.20;19.10;;;;;;;17.90;50.77;93408.72;4995992;28;20076;-90
2023/05/06 07:25:12;;;;;;;48.35;17.73;;;;;;;17.87;50.77;93403.50;4997035;28;20034;-92
2023/05/06 07:27:39;;;;;;;59.08;17.10;;;;;;;17.88;51.29;93413.22;4984602;28;20030;-91
2023/05/06 07:30:07;;;;;;;52.90;17.08;;;;;;;17.86;51.14;93408.25;5014709;28;20381;-89
2023/05/06 07:32:32;;;;;;;49.97;15.40;;;;;;;17.88;50.26;93415.94;4995236;28;20045;-89
2023/05/06 07:34:59;;;;;;;54.13;15.75;;;;;;;17.85;50.55;93416.94;5001906;28;20046;-91
2023/05/06 07:37:24;;;;;;;46.88;14.82;;;;;;;17.83;50.16;93417.44;4993130;28;20038;-92
2023/05/06 07:39:53;;;;;;;38.58;14.35;;;;;;;17.91;50.78;93412.19;4995109;28;20038;-92
2023/05/06 07:42:19;;;;;;;52.88;15.68;;;;;;;17.91;50.13;93418.41;4975842;28;20046;-92
2023/05/06 07:44:45;;;;;;;29.33;11.75;;;;;;;17.92;50.77;93430.84;5000997;28;20105;-92
2023/05/06 07:47:11;;;;;;;34.50;12.52;;;;;;;17.95;50.62;93431.81;5007768;28;20066;-91
2023/05/06 07:49:36;;;;;;;37.63;13.98;;;;;;;17.90;50.05;93419.66;4978606;28;20034;-93
2023/05/06 07:52:02;;;;;;;30.88;12.77;;;;;;;17.90;49.55;93424.38;4977893;28;20050;-93
2023/05/06 07:54:30;;;;;;;34.75;14.23;;;;;;;17.94;49.82;93422.88;4992799;28;20561;-91
2023/05/06 07:56:55;;;;;;;37.47;14.30;;;;;;;18.02;49.47;93429.25;4976526;28;20042;-92
2023/05/06 07:59:21;;;;;;;33.60;11.70;;;;;;;17.93;49.67;93434.31;4959850;28;20096;-91
2023/05/06 08:01:46;;;;;;;35.65;11.07;;;;;;;17.94;50.08;93435.78;4961497;28;20065;-92
2023/05/06 08:04:15;;;;;;;34.60;13.02;;;;;;;17.92;49.88;93430.84;4977929;28;20386;-92
2023/05/06 08:06:41;;;;;;;25.65;12.25;;;;;;;17.91;50.43;93428.59;4979516;28;20066;-93
2023/05/06 08:09:06;;;;;;;26.77;11.43;;;;;;;17.93;50.75;93426.84;4962828;28;20049;-92
2023/05/06 08:11:32;;;;;;;27.85;10.88;;;;;;;17.94;50.59;93439.28;4977912;28;20053;-93
2023/05/06 08:13:57;;;;;;;27.60;10.85;;;;;;;17.94;50.16;93436.53;4955823;28;20080;-92
2023/05/06 08:16:23;;;;;;;24.42;10.07;;;;;;;17.96;50.50;93438.78;4961778;28;20153;-93
2023/05/06 08:18:48;;;;;;;29.60;10.75;;;;;;;17.96;50.21;93441.50;4963098;28;20038;-92
2023/05/06 08:21:14;;;;;;;47.05;12.38;;;;;;;17.94;49.72;93439.28;4943652;28;20066;-92
2023/05/06 08:23:40;;;;;;;40.45;11.38;;;;;;;17.98;49.79;93441.72;4920719;29;20055;-93
2023/05/06 08:26:05;;;;;;;49.70;12.82;;;;;;;17.99;49.89;93443.19;4933694;28;20126;-92
2023/05/06 08:28:31;;;;;;;34.05;10.60;;;;;;;17.98;50.19;93444.44;4956234;28;20043;-91
2023/05/06 08:30:56;;;;;;;29.17;11.00;;;;;;;18.02;50.58;93444.94;4954577;28;20522;-91
2023/05/06 08:33:22;;;;;;;41.03;12.20;;;;;;;18.00;50.35;93450.91;4955723;28;20082;-91
2023/05/06 08:35:48;;;;;;;34.10;10.13;;;;;;;18.02;50.76;93448.41;4956150;28;20543;-92
2023/05/06 08:38:14;;;;;;;36.22;12.88;;;;;;;18.04;49.63;93450.63;4954824;28;20038;-93
2023/05/06 08:40:43;;;;;;;39.42;11.48;;;;;;;17.97;49.64;93459.41;4955950;28;20047;-92
2023/05/06 08:43:13;;;;;;;32.53;12.48;;;;;;;18.02;50.33;93455.88;4955183;28;20043;-93
2023/05/06 08:45:41;;;;;;;31.67;11.97;;;;;;;18.01;49.91;93452.38;4956080;28;20049;-92
2023/05/06 08:48:09;;;;;;;30.40;11.95;;;;;;;18.03;50.19;93455.38;4974015;28;20280;-92
2023/05/06 08:50:39;;;;;;;30.50;11.23;;;;;;;18.03;50.89;93455.38;4957304;28;20046;-93
2023/05/06 08:53:29;;;;;;;43.05;13.30;;;;;;;18.02;50.07;93459.34;4960131;28;20541;-92
2023/05/06 08:56:03;;;;;;;36.03;11.93;;;;;;;18.04;50.80;93456.84;4921700;29;20054;-91
2023/05/06 08:58:33;;;;;;;32.50;12.07;;;;;;;18.03;50.70;93454.63;4946389;28;20125;-93
2023/05/06 09:01:09;;;;;;;38.28;11.27;;;;;;;18.04;50.96;93462.31;4973557;28;20038;-93
2023/05/06 09:03:46;;;;;;;44.55;16.65;;;;;;;18.05;50.18;93455.59;5026207;28;20537;-93
2023/05/06 09:06:14;;;;;;;56.13;20.88;;;;;;;18.09;50.29;93460.81;4972081;28;20077;-93
2023/05/06 09:08:48;;;;;;;55.20;23.35;;;;;;;18.06;50.85;93462.56;4962509;28;20070;-92
2023/05/06 09:11:25;;;;;;;70.22;22.23;;;;;;;18.06;50.52;93461.81;4979324;22;20787;-91
2023/05/06 09:13:53;;;;;;;55.15;20.13;;;;;;;18.07;50.78;93460.56;5005939;28;20041;-92
2023/05/06 09:16:28;;;;;;;67.75;29.83;;;;;;;18.04;50.60;93467.78;4987635;28;20037;-92
2023/05/06 09:18:53;;;;;;;77.38;29.95;;;;;;;18.10;50.88;93470.50;4999270;28;20125;-91
2023/05/06 09:21:19;;;;;;;87.63;28.88;;;;;;;18.02;51.25;93467.56;5000918;28;20041;-90
2023/05/06 09:23:47;;;;;;;90.32;34.60;;;;;;;18.06;50.61;93465.28;5027629;28;20289;-93
2023/05/06 09:26:12;;;;;;;77.50;32.50;;;;;;;18.07;50.91;93455.09;5021476;28;20097;-93
2023/05/06 09:28:39;;;;;;;91.55;35.75;;;;;;;18.07;51.10;93455.09;5022733;28;20053;-91
2023/05/06 09:31:05;;;;;;;85.95;36.72;;;;;;;18.06;50.51;93456.34;4997202;28;20104;-93
2023/05/06 09:33:31;;;;;;;76.53;32.00;;;;;;;18.06;51.21;93451.63;5022753;28;20431;-93
2023/05/06 09:35:56;;;;;;;79.22;34.45;;;;;;;18.08;51.04;93448.38;5005225;28;20034;-92
2023/05/06 09:38:22;;;;;;;86.72;36.92;;;;;;;18.06;50.74;93454.34;4999576;28;20041;-92
2023/05/06 09:40:47;;;;;;;90.55;41.28;;;;;;;18.05;50.36;93446.66;5021531;28;20042;-92
2023/05/06 09:43:14;;;;;;;111.32;37.92;;;;;;;18.08;50.44;93448.38;5007387;28;20045;-92
2023/05/06 09:45:42;;;;;;;90.03;36.42;;;;;;;18.11;51.11;93453.59;5022500;28;20103;-93
2023/05/06 09:48:07;;;;;;;79.15;34.58;;;;;;;18.09;51.13;93447.13;5011852;28;20033;-92
2023/05/06 09:50:32;;;;;;;91.78;36.95;;;;;;;18.07;51.12;93450.38;5040582;28;20380;-92
2023/05/06 09:52:58;;;;;;;106.97;40.20;;;;;;;18.10;50.68;93451.34;5010960;28;20042;-93
2023/05/06 09:55:25;;;;;;;100.28;41.92;;;;;;;18.09;51.04;93450.59;5006480;28;20103;-93
2023/05/06 09:57:51;;;;;;;97.32;38.53;;;;;;;18.10;51.30;93448.63;5008917;28;20045;-93
2023/05/06 10:00:25;;;;;;;96.70;40.03;;;;;;;18.09;50.92;93447.88;5006376;28;20371;-91
2023/05/06 10:02:51;;;;;;;104.47;40.88;;;;;;;18.07;50.82;93447.63;5009772;28;20029;-93
2023/05/06 10:05:16;;;;;;;101.80;40.22;;;;;;;18.09;50.77;93456.06;5008146;28;20562;-93
2023/05/06 10:07:43;;;;;;;92.88;38.33;;;;;;;18.10;50.97;93440.41;5006907;28;20500;-92
2023/05/06 10:10:10;;;;;;;92.60;37.05;;;;;;;18.11;51.11;93450.09;5008957;28;20053;-93
2023/05/06 10:12:36;;;;;;;86.47;34.95;;;;;;;18.11;51.47;93441.91;5008083;28;20038;-92
2023/05/06 10:15:03;;;;;;;106.05;45.03;;;;;;;18.10;50.38;93443.16;5006264;28;20053;-93
2023/05/06 10:17:28;;;;;;;98.40;42.53;;;;;;;18.08;50.38;93437.44;5006858;28;20131;-92
2023/05/06 10:19:57;;;;;;;103.10;44.75;;;;;;;18.09;50.54;93442.41;5008102;28;20046;-92
2023/05/06 10:22:33;;;;;;;94.50;38.05;;;;;;;18.11;51.00;93439.91;5024266;28;20079;-93
2023/05/06 10:25:04;;;;;;;92.13;38.08;;;;;;;18.15;50.86;93439.63;5023427;28;20053;-93
2023/05/06 10:27:32;;;;;;;93.53;44.25;;;;;;;18.14;50.06;93440.88;5006625;28;20048;-92
2023/05/06 10:29:58;;;;;;;86.50;38.55;;;;;;;18.14;51.05;93432.69;4989915;28;20058;-92
2023/05/06 10:32:25;;;;;;;113.22;45.42;;;;;;;18.15;50.08;93434.16;4977567;28;20039;-92
2023/05/06 10:35:01;;;;;;;76.15;38.25;;;;;;;18.18;50.73;93421.47;4957519;28;20042;-93
2023/05/06 10:37:27;;;;;;;88.25;42.95;;;;;;;18.15;50.78;93415.00;4966300;28;20101;-93
2023/05/06 10:39:53;;;;;;;92.45;39.85;;;;;;;18.18;50.95;93413.25;4975233;28;20099;-93
2023/05/06 10:42:22;;;;;;;96.35;43.08;;;;;;;18.21;51.11;93417.69;4966099;28;20449;-92
2023/05/06 10:44:58;;;;;;;134.48;60.25;;;;;;;18.16;50.27;93411.03;4957017;28;20046;-93
2023/05/06 10:47:49;;;;;;;107.30;47.38;;;;;;;18.17;50.64;93417.97;4963527;28;20492;-92
2023/05/06 10:50:20;;;;;;;98.55;40.72;;;;;;;18.23;51.19;93412.44;4987556;28;20041;-92
2023/05/06 10:52:46;;;;;;;;;;;;;;;18.20;50.55;93419.69;4959060;28;20547;-93
2023/05/06 10:55:30;;;;;;;107.70;47.45;;;;;;;18.21;50.95;93423.16;5002110;28;19929;-92
2023/05/06 10:57:56;;;;;;;92.47;40.58;;;;;;;18.18;50.89;93421.47;4983387;28;20033;-92
2023/05/06 11:00:23;;;;;;;108.85;48.20;;;;;;;18.17;50.98;93417.97;4929435;28;20049;-92
2023/05/06 11:03:00;;;;;;;129.35;55.60;;;;;;;18.15;50.69;93413.03;4979025;28;20090;-92
2023/05/06 11:05:28;;;;;;;175.35;82.68;;;;;;;18.21;50.72;93420.41;4988645;28;20053;-92
2023/05/06 11:08:07;;;;;;;164.05;69.90;;;;;;;18.23;50.46;93417.91;4950179;28;20037;-92
2023/05/06 11:10:40;;;;;;;134.25;58.17;;;;;;;18.24;51.01;93413.94;4979254;28;20072;-92
2023/05/06 11:13:26;;;;;;;131.90;56.20;;;;;;;18.23;50.96;93421.41;4958487;28;20053;-93
2023/05/06 11:15:54;;;;;;;141.93;59.90;;;;;;;18.21;50.74;93423.16;4963423;28;20046;-92
2023/05/06 11:21:01;;;;;;;136.77;61.65;;;;;;;18.21;51.23;93434.84;5053434;28;20037;-93
2023/05/06 11:23:42;;;;;;;132.43;59.00;;;;;;;18.22;50.82;93428.13;5042680;28;20120;-92
2023/05/06 11:26:08;;;;;;;152.27;65.00;;;;;;;18.20;50.54;93436.09;5032485;28;20041;-92
2023/05/06 11:28:34;;;;;;;127.47;56.28;;;;;;;18.23;50.75;93431.59;4978465;28;20038;-92